Asterion — FICK — position and weather

sailwx.info

Track history (hours):
 
Tides and Currents Weather Stations Pressure Air Temp Water Temp Dewpoint Dewpoint Depression Visibility Wind Speed Wind Dir Waves Ship Positions

Asterion

Last reported at 2015-Aug-03 18:21 UTC. Time now 2015-Aug-05 04:19 UTC.
Position N 50°00' W 002°53'.

Length 184 m; draft 11.2 m.

Type: Tanker. MMSI: 226000000.

Date/timePositionNaut miles runAvg speedWind from/ knotsBaromVisibWave heightAir tempDewpointWater temp
2015-Aug-03 18:21N 50°00' W 002°53'1112.9
2015-Aug-03 17:31N 50°03' W 002°37'1814.8
2015-Aug-03 16:16N 50°08' W 002°09'3516.1
2015-Aug-03 14:07N 50°18' W 001°17'5812.4
2015-Aug-03 09:24N 50°31' E 000°12'1112.7
2015-Aug-03 08:33N 50°35' E 000°28'1313.1
2015-Aug-03 07:33N 50°42' E 000°45'1413.5
2015-Aug-03 06:33N 50°50' E 001°03'1413.6
2015-Aug-03 05:33N 50°59' E 001°19'1313.0
2015-Aug-03 04:33N 51°08' E 001°34'1111.3
2015-Aug-03 03:33N 51°16' E 001°47'1111.4
2015-Aug-03 02:33N 51°26' E 001°55'1212.4
2015-Aug-03 01:33N 51°35' E 002°08'1212.2
2015-Aug-03 00:33N 51°44' E 002°21'1313.3
2015-Aug-02 23:33N 51°55' E 002°35'1414.1
2015-Aug-02 22:33N 52°09' E 002°38'1414.3
2015-Aug-02 21:33N 52°23' E 002°44'1413.6
2015-Aug-02 20:30N 52°34' E 002°57'1313.2
2015-Aug-02 19:33N 52°46' E 003°06'1313.1
2015-Aug-02 18:33N 52°57' E 003°15'1313.0
2015-Aug-02 17:33N 53°10' E 003°22'1312.7
2015-Aug-02 16:33N 53°22' E 003°29'1312.7
2015-Aug-02 15:33N 53°34' E 003°35'1312.2
2015-Aug-02 14:31N 53°45' E 003°45'2613.1
2015-Aug-02 12:33N 54°01' E 004°19'1813.0
2015-Aug-02 11:09N 54°15' E 004°38'813.2
2015-Aug-02 10:33N 54°22' E 004°46'16313.0
2015-Aug-01 22:03N 56°38' E 007°25'713.0
2015-Aug-01 21:32N 56°43' E 007°32'1313.0
2015-Aug-01 20:33N 56°54' E 007°46'1412.9
2015-Aug-01 19:29N 57°05' E 007°59'9112.5
2015-Aug-01 12:11N 57°49' E 010°28'812.6
2015-Aug-01 11:33N 57°49' E 010°43'1312.6
2015-Aug-01 10:33N 57°43' E 011°05'1312.4
2015-Aug-01 09:33N 57°38' E 011°26'9 8.6
2015-Aug-01 08:33N 57°38' E 011°41'7 6.8
2015-Aug-01 07:33N 57°41' E 011°53'0 0.1
2015-Aug-01 06:32N 57°41' E 011°53'0 0.0
2015-Aug-01 05:31N 57°41' E 011°53'0 0.0
2015-Aug-01 04:31N 57°41' E 011°53'0 0.0
2015-Aug-01 03:31N 57°41' E 011°53'0 0.0
2015-Aug-01 02:31N 57°41' E 011°53'0 0.0
2015-Aug-01 01:31N 57°41' E 011°53'0 0.0
2015-Aug-01 00:31N 57°41' E 011°53'0 0.0
2015-Jul-31 23:31N 57°41' E 011°53'0 0.0
2015-Jul-31 22:31N 57°41' E 011°53'0 0.0
2015-Jul-31 21:31N 57°41' E 011°53'0 0.0
2015-Jul-31 20:31N 57°41' E 011°53'0 0.0
2015-Jul-31 19:31N 57°41' E 011°53'0 0.0
2015-Jul-31 18:31N 57°41' E 011°53'0 0.0
2015-Jul-31 17:31N 57°41' E 011°53'0 0.0
2015-Jul-31 16:31N 57°41' E 011°53'0 0.0
2015-Jul-31 15:31N 57°41' E 011°53'0 0.0
2015-Jul-31 14:31N 57°41' E 011°53'0 0.0
2015-Jul-31 13:31N 57°41' E 011°53'0 0.0
2015-Jul-31 12:31N 57°41' E 011°53'0 0.0
2015-Jul-31 11:31N 57°41' E 011°53'0 0.0
2015-Jul-31 10:32N 57°41' E 011°53'0 0.0
2015-Jul-31 09:31N 57°41' E 011°53'0 0.0
2015-Jul-31 08:31N 57°41' E 011°53'0 0.0
2015-Jul-31 07:31N 57°41' E 011°53'0 0.0
2015-Jul-31 06:31N 57°41' E 011°53'0 0.0
2015-Jul-31 05:31N 57°41' E 011°53'0 0.0
2015-Jul-31 04:31N 57°41' E 011°53'0 0.0
2015-Jul-31 03:31N 57°41' E 011°53'0 0.0
2015-Jul-31 02:31N 57°41' E 011°53'3 2.8
2015-Jul-31 01:33N 57°40' E 011°48'8 8.3
2015-Jul-31 00:33N 57°34' E 011°38'1110.9
2015-Jul-30 23:33N 57°23' E 011°36'1312.9
2015-Jul-30 22:33N 57°10' E 011°39'1313.0
2015-Jul-30 21:33N 56°58' E 011°46'1312.9
2015-Jul-30 20:33N 56°45' E 011°53'1513.0
2015-Jul-30 19:22N 56°32' E 011°39'1113.0
2015-Jul-30 18:33N 56°23' E 011°29'  
2015-Jul-28 03:21N 56°35' E 011°41'1214.4
2015-Jul-28 02:33N 56°45' E 011°52'1514.5
2015-Jul-28 01:33N 56°59' E 011°43'1414.4
2015-Jul-28 00:33N 57°12' E 011°34'1514.6
2015-Jul-27 23:33N 57°26' E 011°25'1413.9
2015-Jul-27 22:33N 57°36' E 011°07'1413.8
2015-Jul-27 21:33N 57°45' E 010°48'1211.8
2015-Jul-27 20:33N 57°47' E 010°26'16414.3
2015-Jul-27 09:05N 55°52' E 006°51'815.4
2015-Jul-27 08:32N 55°45' E 006°43'1815.3
2015-Jul-27 07:20N 55°29' E 006°27'7915.3
2015-Jul-27 02:09N 54°19' E 005°20'915.7
2015-Jul-27 01:34N 54°11' E 005°12'1615.5
2015-Jul-27 00:33N 53°57' E 005°02'1615.7
2015-Jul-26 23:33N 53°42' E 004°53'1616.0
2015-Jul-26 22:34N 53°27' E 004°43'1616.0
2015-Jul-26 21:33N 53°12' E 004°34'1515.4
2015-Jul-26 20:33N 52°59' E 004°20'1515.1
2015-Jul-26 19:34N 52°46' E 004°09'1514.8
2015-Jul-26 18:34N 52°35' E 003°53'1614.5
2015-Jul-26 17:28N 52°25' E 003°33'7114.5
2015-Jul-26 12:33N 51°31' E 002°17'1514.5
2015-Jul-26 11:34N 51°18' E 002°07'1514.7
2015-Jul-26 10:34N 51°09' E 001°49'1615.8
2015-Jul-26 09:34N 50°58' E 001°31'3614.8
2015-Jul-26 07:06N 50°30' E 000°54'815.1
2015-Jul-26 06:33N 50°28' E 000°41'8116.1
2015-Jul-26 01:33N 50°06' W 001°20'1716.3
2015-Jul-26 00:33N 50°02' W 001°45'  
Track history (hours):
 
Tides and Currents Weather Stations Pressure Air Temp Water Temp Dewpoint Dewpoint Depression Visibility Wind Speed Wind Dir Waves Ship Positions

Asterion

Last reported at 2015-Aug-03 18:21 UTC. Time now 2015-Aug-05 04:19 UTC.
Position N 50°00' W 002°53'.

Length 184 m; draft 11.2 m.

Type: Tanker. MMSI: 226000000.

Date/timePositionNaut miles runAvg speedWind from/ knotsBaromVisibWave heightAir tempDewpointWater temp
2015-Aug-03 18:21N 50°00' W 002°53'1112.9
2015-Aug-03 17:31N 50°03' W 002°37'1814.8
2015-Aug-03 16:16N 50°08' W 002°09'3516.1
2015-Aug-03 14:07N 50°18' W 001°17'5812.4
2015-Aug-03 09:24N 50°31' E 000°12'1112.7
2015-Aug-03 08:33N 50°35' E 000°28'1313.1
2015-Aug-03 07:33N 50°42' E 000°45'1413.5
2015-Aug-03 06:33N 50°50' E 001°03'1413.6
2015-Aug-03 05:33N 50°59' E 001°19'1313.0
2015-Aug-03 04:33N 51°08' E 001°34'1111.3
2015-Aug-03 03:33N 51°16' E 001°47'1111.4
2015-Aug-03 02:33N 51°26' E 001°55'1212.4
2015-Aug-03 01:33N 51°35' E 002°08'1212.2
2015-Aug-03 00:33N 51°44' E 002°21'1313.3
2015-Aug-02 23:33N 51°55' E 002°35'1414.1
2015-Aug-02 22:33N 52°09' E 002°38'1414.3
2015-Aug-02 21:33N 52°23' E 002°44'1413.6
2015-Aug-02 20:30N 52°34' E 002°57'1313.2
2015-Aug-02 19:33N 52°46' E 003°06'1313.1
2015-Aug-02 18:33N 52°57' E 003°15'1313.0
2015-Aug-02 17:33N 53°10' E 003°22'1312.7
2015-Aug-02 16:33N 53°22' E 003°29'1312.7
2015-Aug-02 15:33N 53°34' E 003°35'1312.2
2015-Aug-02 14:31N 53°45' E 003°45'2613.1
2015-Aug-02 12:33N 54°01' E 004°19'1813.0
2015-Aug-02 11:09N 54°15' E 004°38'813.2
2015-Aug-02 10:33N 54°22' E 004°46'16313.0
2015-Aug-01 22:03N 56°38' E 007°25'713.0
2015-Aug-01 21:32N 56°43' E 007°32'1313.0
2015-Aug-01 20:33N 56°54' E 007°46'1412.9
2015-Aug-01 19:29N 57°05' E 007°59'9112.5
2015-Aug-01 12:11N 57°49' E 010°28'812.6
2015-Aug-01 11:33N 57°49' E 010°43'1312.6
2015-Aug-01 10:33N 57°43' E 011°05'1312.4
2015-Aug-01 09:33N 57°38' E 011°26'9 8.6
2015-Aug-01 08:33N 57°38' E 011°41'7 6.8
2015-Aug-01 07:33N 57°41' E 011°53'0 0.1
2015-Aug-01 06:32N 57°41' E 011°53'0 0.0
2015-Aug-01 05:31N 57°41' E 011°53'0 0.0
2015-Aug-01 04:31N 57°41' E 011°53'0 0.0
2015-Aug-01 03:31N 57°41' E 011°53'0 0.0
2015-Aug-01 02:31N 57°41' E 011°53'0 0.0
2015-Aug-01 01:31N 57°41' E 011°53'0 0.0
2015-Aug-01 00:31N 57°41' E 011°53'0 0.0
2015-Jul-31 23:31N 57°41' E 011°53'0 0.0
2015-Jul-31 22:31N 57°41' E 011°53'0 0.0
2015-Jul-31 21:31N 57°41' E 011°53'0 0.0
2015-Jul-31 20:31N 57°41' E 011°53'0 0.0
2015-Jul-31 19:31N 57°41' E 011°53'0 0.0
2015-Jul-31 18:31N 57°41' E 011°53'0 0.0
2015-Jul-31 17:31N 57°41' E 011°53'0 0.0
2015-Jul-31 16:31N 57°41' E 011°53'0 0.0
2015-Jul-31 15:31N 57°41' E 011°53'0 0.0
2015-Jul-31 14:31N 57°41' E 011°53'0 0.0
2015-Jul-31 13:31N 57°41' E 011°53'0 0.0
2015-Jul-31 12:31N 57°41' E 011°53'0 0.0
2015-Jul-31 11:31N 57°41' E 011°53'0 0.0
2015-Jul-31 10:32N 57°41' E 011°53'0 0.0
2015-Jul-31 09:31N 57°41' E 011°53'0 0.0
2015-Jul-31 08:31N 57°41' E 011°53'0 0.0
2015-Jul-31 07:31N 57°41' E 011°53'0 0.0
2015-Jul-31 06:31N 57°41' E 011°53'0 0.0
2015-Jul-31 05:31N 57°41' E 011°53'0 0.0
2015-Jul-31 04:31N 57°41' E 011°53'0 0.0
2015-Jul-31 03:31N 57°41' E 011°53'0 0.0
2015-Jul-31 02:31N 57°41' E 011°53'3 2.8
2015-Jul-31 01:33N 57°40' E 011°48'8 8.3
2015-Jul-31 00:33N 57°34' E 011°38'1110.9
2015-Jul-30 23:33N 57°23' E 011°36'1312.9
2015-Jul-30 22:33N 57°10' E 011°39'1313.0
2015-Jul-30 21:33N 56°58' E 011°46'1312.9
2015-Jul-30 20:33N 56°45' E 011°53'1513.0
2015-Jul-30 19:22N 56°32' E 011°39'1113.0
2015-Jul-30 18:33N 56°23' E 011°29'  
2015-Jul-28 03:21N 56°35' E 011°41'1214.4
2015-Jul-28 02:33N 56°45' E 011°52'1514.5
2015-Jul-28 01:33N 56°59' E 011°43'1414.4
2015-Jul-28 00:33N 57°12' E 011°34'1514.6
2015-Jul-27 23:33N 57°26' E 011°25'1413.9
2015-Jul-27 22:33N 57°36' E 011°07'1413.8
2015-Jul-27 21:33N 57°45' E 010°48'1211.8
2015-Jul-27 20:33N 57°47' E 010°26'16414.3
2015-Jul-27 09:05N 55°52' E 006°51'815.4
2015-Jul-27 08:32N 55°45' E 006°43'1815.3
2015-Jul-27 07:20N 55°29' E 006°27'7915.3
2015-Jul-27 02:09N 54°19' E 005°20'915.7
2015-Jul-27 01:34N 54°11' E 005°12'1615.5
2015-Jul-27 00:33N 53°57' E 005°02'1615.7
2015-Jul-26 23:33N 53°42' E 004°53'1616.0
2015-Jul-26 22:34N 53°27' E 004°43'1616.0
2015-Jul-26 21:33N 53°12' E 004°34'1515.4
2015-Jul-26 20:33N 52°59' E 004°20'1515.1
2015-Jul-26 19:34N 52°46' E 004°09'1514.8
2015-Jul-26 18:34N 52°35' E 003°53'1614.5
2015-Jul-26 17:28N 52°25' E 003°33'7114.5
2015-Jul-26 12:33N 51°31' E 002°17'1514.5
2015-Jul-26 11:34N 51°18' E 002°07'1514.7
2015-Jul-26 10:34N 51°09' E 001°49'1615.8
2015-Jul-26 09:34N 50°58' E 001°31'3614.8
2015-Jul-26 07:06N 50°30' E 000°54'815.1
2015-Jul-26 06:33N 50°28' E 000°41'8116.1
2015-Jul-26 01:33N 50°06' W 001°20'1716.3
2015-Jul-26 00:33N 50°02' W 001°45'  

Dump ship's entire track history